createdAt,value
2017-07-17T00:00:06.171Z,26.10
2017-07-17T00:02:33.702Z,26.10
2017-07-17T00:05:02.045Z,26.00
2017-07-17T00:07:29.618Z,26.00
2017-07-17T00:09:57.218Z,26.00
2017-07-17T00:12:24.782Z,26.00
2017-07-17T00:14:52.327Z,26.00
2017-07-17T00:17:19.879Z,25.90
2017-07-17T00:19:47.452Z,25.90
2017-07-17T00:22:15.023Z,25.90
2017-07-17T00:24:42.601Z,25.90
2017-07-17T00:27:10.173Z,25.90
2017-07-17T00:29:37.730Z,25.90
2017-07-17T00:32:05.332Z,25.80
2017-07-17T00:34:32.909Z,25.80
2017-07-17T00:37:00.521Z,25.80
2017-07-17T00:39:28.057Z,25.80
2017-07-17T00:41:55.705Z,25.80
2017-07-17T00:44:23.293Z,25.70
2017-07-17T00:46:50.895Z,25.70
2017-07-17T00:49:18.494Z,25.70
2017-07-17T00:51:46.061Z,25.70
2017-07-17T00:54:13.741Z,25.70
2017-07-17T00:56:41.344Z,25.70
2017-07-17T00:59:08.917Z,25.70
2017-07-17T01:01:36.457Z,25.70
2017-07-17T01:04:04.078Z,25.70
2017-07-17T01:06:31.626Z,25.70
2017-07-17T01:08:59.185Z,25.60
2017-07-17T01:11:26.732Z,25.60
2017-07-17T01:13:54.337Z,25.60
2017-07-17T01:16:21.937Z,25.60
2017-07-17T01:18:49.495Z,25.60
2017-07-17T01:21:17.034Z,25.60
2017-07-17T01:23:45.362Z,25.60
2017-07-17T01:26:12.939Z,25.50
2017-07-17T01:28:40.494Z,25.50
2017-07-17T01:31:08.033Z,25.50
2017-07-17T01:33:35.614Z,25.50
2017-07-17T01:36:03.208Z,25.50
2017-07-17T01:38:31.518Z,25.50
2017-07-17T01:40:59.117Z,25.50
2017-07-17T01:43:26.664Z,25.50
2017-07-17T01:45:54.555Z,25.50
2017-07-17T01:48:22.089Z,25.40
2017-07-17T01:50:49.675Z,25.40
2017-07-17T01:53:18.029Z,25.40
2017-07-17T01:55:45.598Z,25.40
2017-07-17T01:58:13.131Z,25.40
2017-07-17T02:00:40.670Z,25.40
2017-07-17T02:03:08.244Z,25.40
2017-07-17T02:05:35.791Z,25.30
2017-07-17T02:08:03.383Z,25.30
2017-07-17T02:10:30.933Z,25.30
2017-07-17T02:12:58.507Z,25.30
2017-07-17T02:15:26.054Z,25.30
2017-07-17T02:17:53.648Z,25.30
2017-07-17T02:20:21.358Z,25.20
2017-07-17T02:22:48.928Z,25.20
2017-07-17T02:25:16.487Z,25.20
2017-07-17T02:27:44.062Z,25.20
2017-07-17T02:30:11.631Z,25.10
2017-07-17T02:32:39.256Z,25.20
2017-07-17T02:35:06.824Z,25.10
2017-07-17T02:37:34.407Z,25.10
2017-07-17T02:40:01.969Z,25.10
2017-07-17T02:42:29.555Z,25.10
2017-07-17T02:44:57.157Z,25.10
2017-07-17T02:47:24.719Z,25.10
2017-07-17T02:49:52.320Z,25.00
2017-07-17T02:52:19.859Z,25.00
2017-07-17T02:54:47.423Z,25.00
2017-07-17T02:57:14.964Z,25.00
2017-07-17T02:59:42.526Z,25.00
2017-07-17T03:02:10.095Z,25.00
2017-07-17T03:04:37.670Z,25.00
2017-07-17T03:07:05.263Z,25.00
2017-07-17T03:09:33.578Z,25.00
2017-07-17T03:12:01.109Z,24.90
2017-07-17T03:14:28.700Z,24.90
2017-07-17T03:16:56.338Z,24.90
2017-07-17T03:19:24.721Z,24.90
2017-07-17T03:21:52.315Z,24.90
2017-07-17T03:24:19.917Z,24.90
2017-07-17T03:26:47.459Z,24.90
2017-07-17T03:29:15.026Z,24.80
2017-07-17T03:31:42.624Z,24.90
2017-07-17T03:34:10.174Z,24.80
2017-07-17T03:36:37.824Z,24.80
2017-07-17T03:39:05.414Z,24.80
2017-07-17T03:41:32.993Z,24.80
2017-07-17T03:44:00.546Z,24.80
2017-07-17T03:46:28.167Z,24.80
2017-07-17T03:48:56.571Z,24.80
2017-07-17T03:51:24.144Z,24.70
2017-07-17T03:53:51.776Z,24.80
2017-07-17T03:56:19.337Z,24.80
2017-07-17T03:58:46.897Z,24.80
2017-07-17T04:01:14.574Z,24.70
2017-07-17T04:03:42.178Z,24.80
2017-07-17T04:06:09.713Z,24.70
2017-07-17T04:08:37.290Z,24.70
2017-07-17T04:11:04.849Z,24.70
2017-07-17T04:13:32.445Z,24.70
2017-07-17T04:15:59.998Z,24.80
2017-07-17T04:18:27.526Z,24.70
2017-07-17T04:20:55.084Z,24.80
2017-07-17T04:23:22.637Z,24.70
2017-07-17T04:25:50.176Z,24.70
2017-07-17T04:28:17.737Z,24.70
2017-07-17T04:30:45.314Z,24.70
2017-07-17T04:33:12.905Z,24.70
2017-07-17T04:35:40.455Z,24.70
2017-07-17T04:38:08.036Z,24.70
2017-07-17T04:40:36.382Z,24.70
2017-07-17T04:43:03.920Z,24.70
2017-07-17T04:45:31.487Z,24.70
2017-07-17T04:47:59.026Z,24.80
2017-07-17T04:50:26.578Z,24.80
2017-07-17T04:52:54.109Z,24.80
2017-07-17T04:55:22.413Z,24.80
2017-07-17T04:57:50.002Z,24.80
2017-07-17T05:00:17.581Z,24.80
2017-07-17T05:02:45.147Z,24.80
2017-07-17T05:05:12.683Z,24.80
2017-07-17T05:07:40.225Z,24.80
2017-07-17T05:10:07.902Z,24.80
2017-07-17T05:12:35.762Z,24.80
2017-07-17T05:15:03.324Z,24.80
2017-07-17T05:17:30.866Z,24.80
2017-07-17T05:19:58.455Z,24.80
2017-07-17T05:22:26.056Z,24.80
2017-07-17T05:24:53.637Z,24.80
2017-07-17T05:27:21.199Z,24.80
2017-07-17T05:29:48.757Z,24.80
2017-07-17T05:32:16.278Z,24.80
2017-07-17T05:34:43.821Z,24.80
2017-07-17T05:37:11.359Z,24.80
2017-07-17T05:39:38.906Z,24.80
2017-07-17T05:42:06.427Z,24.90
2017-07-17T05:44:34.003Z,24.80
2017-07-17T05:47:01.567Z,24.80
2017-07-17T05:49:29.086Z,24.80
2017-07-17T05:51:56.635Z,24.80
2017-07-17T05:54:24.161Z,24.80
2017-07-17T05:56:51.738Z,24.90
2017-07-17T05:59:19.263Z,24.80
2017-07-17T06:01:46.799Z,24.80
2017-07-17T06:04:14.330Z,24.80
2017-07-17T06:06:41.899Z,24.80
2017-07-17T06:09:09.481Z,24.90
2017-07-17T06:11:37.820Z,24.90
2017-07-17T06:14:06.161Z,24.90
2017-07-17T06:16:33.693Z,24.90
2017-07-17T06:19:01.261Z,24.90
2017-07-17T06:21:28.810Z,24.90
2017-07-17T06:23:56.539Z,24.90
2017-07-17T06:26:24.059Z,24.90
2017-07-17T06:28:51.609Z,24.90
2017-07-17T06:31:19.140Z,25.00
2017-07-17T06:33:46.682Z,25.00
2017-07-17T06:36:14.227Z,25.00
2017-07-17T06:38:41.784Z,25.00
2017-07-17T06:41:09.320Z,25.00
2017-07-17T06:43:36.885Z,25.00
2017-07-17T06:46:04.437Z,25.00
2017-07-17T06:48:32.030Z,25.10
2017-07-17T06:50:59.565Z,25.10
2017-07-17T06:53:27.093Z,25.20
2017-07-17T06:55:54.658Z,25.20
2017-07-17T06:58:22.181Z,25.20
2017-07-17T07:00:49.748Z,25.30
2017-07-17T07:03:17.287Z,25.30
2017-07-17T07:05:44.838Z,25.40
2017-07-17T07:08:12.398Z,25.50
2017-07-17T07:10:39.940Z,25.50
2017-07-17T07:13:07.478Z,25.60
2017-07-17T07:15:35.011Z,25.60
2017-07-17T07:18:02.561Z,25.70
2017-07-17T07:20:30.152Z,25.80
2017-07-17T07:22:57.701Z,25.90
2017-07-17T07:25:25.249Z,25.90
2017-07-17T07:27:52.796Z,25.90
2017-07-17T07:30:20.317Z,26.00
2017-07-17T07:32:47.924Z,26.00
2017-07-17T07:35:15.461Z,26.10
2017-07-17T07:37:43.021Z,26.10
2017-07-17T07:40:10.577Z,26.20
2017-07-17T07:42:38.161Z,26.30
2017-07-17T07:45:05.681Z,26.40
2017-07-17T07:47:33.240Z,26.60
2017-07-17T07:50:00.812Z,26.70
2017-07-17T07:52:28.396Z,26.70
2017-07-17T07:54:55.963Z,26.70
2017-07-17T07:57:23.502Z,26.80
2017-07-17T07:59:51.044Z,26.90
2017-07-17T08:02:18.590Z,27.10
2017-07-17T08:04:46.145Z,27.10
2017-07-17T08:07:13.680Z,27.00
2017-07-17T08:09:41.218Z,27.00
2017-07-17T08:12:08.754Z,27.10
2017-07-17T08:14:36.380Z,27.20
2017-07-17T08:17:03.904Z,27.30
2017-07-17T08:19:31.438Z,27.30
2017-07-17T08:21:58.988Z,27.50
2017-07-17T08:24:26.512Z,27.60
2017-07-17T08:26:54.077Z,27.70
2017-07-17T08:29:21.608Z,27.90
2017-07-17T08:31:49.160Z,27.90
2017-07-17T08:34:16.691Z,28.00
2017-07-17T08:36:44.229Z,28.10
2017-07-17T08:39:11.755Z,28.20
2017-07-17T08:41:39.289Z,28.40
2017-07-17T08:44:06.829Z,28.50
2017-07-17T08:46:34.395Z,28.70
2017-07-17T08:49:01.927Z,28.80
2017-07-17T08:51:29.470Z,28.90
2017-07-17T08:53:57.047Z,29.00
2017-07-17T08:56:24.585Z,29.00
2017-07-17T08:58:52.916Z,29.10
2017-07-17T09:01:20.442Z,29.10
2017-07-17T09:03:48.002Z,29.30
2017-07-17T09:06:15.599Z,29.40
2017-07-17T09:08:43.145Z,29.50
2017-07-17T09:11:10.669Z,29.40
2017-07-17T09:13:38.232Z,29.40
2017-07-17T09:16:05.757Z,29.30
2017-07-17T09:18:33.383Z,29.10
2017-07-17T09:21:00.974Z,29.10
2017-07-17T09:23:28.923Z,29.30
2017-07-17T09:25:56.462Z,29.40
2017-07-17T09:28:24.026Z,29.60
2017-07-17T09:30:51.553Z,29.70
2017-07-17T09:33:19.105Z,29.90
2017-07-17T09:35:46.733Z,30.00
2017-07-17T09:38:14.260Z,30.00
2017-07-17T09:40:41.808Z,30.00
2017-07-17T09:43:09.330Z,30.10
2017-07-17T09:45:36.865Z,30.30
2017-07-17T09:48:04.392Z,30.50
2017-07-17T09:50:31.956Z,30.70
2017-07-17T09:52:59.518Z,30.90
2017-07-17T09:55:27.073Z,31.00
2017-07-17T09:57:54.602Z,31.10
2017-07-17T10:00:22.195Z,31.10
2017-07-17T10:02:49.768Z,31.00
2017-07-17T10:05:17.297Z,31.00
2017-07-17T10:07:44.832Z,31.00
2017-07-17T10:10:12.358Z,31.10
2017-07-17T10:12:39.933Z,31.30
2017-07-17T10:15:07.453Z,31.50
2017-07-17T10:17:35.789Z,31.60
2017-07-17T10:20:03.303Z,31.50
2017-07-17T10:22:30.841Z,31.60
2017-07-17T10:24:58.625Z,31.80
2017-07-17T10:27:26.170Z,31.70
2017-07-17T10:29:53.689Z,31.70
2017-07-17T10:32:21.208Z,31.70
2017-07-17T10:34:48.762Z,31.80
2017-07-17T10:37:16.280Z,32.00
2017-07-17T10:39:43.835Z,32.20
2017-07-17T10:42:11.376Z,32.20
2017-07-17T10:44:38.924Z,32.20
2017-07-17T10:47:06.460Z,32.30
2017-07-17T10:49:34.001Z,32.30
2017-07-17T10:52:01.531Z,32.40
2017-07-17T10:54:29.115Z,32.40
2017-07-17T10:56:56.647Z,32.20
2017-07-17T10:59:24.181Z,32.10
2017-07-17T11:01:51.739Z,32.20
2017-07-17T11:04:19.349Z,32.30
2017-07-17T11:06:46.909Z,32.50
2017-07-17T11:09:14.484Z,32.40
2017-07-17T11:11:42.069Z,32.50
2017-07-17T11:14:09.641Z,32.60
2017-07-17T11:16:37.951Z,32.50
2017-07-17T11:19:05.496Z,32.50
2017-07-17T11:21:33.031Z,32.30
2017-07-17T11:24:00.549Z,32.50
2017-07-17T11:26:28.089Z,33.40
2017-07-17T11:28:55.611Z,34.80
2017-07-17T11:31:23.159Z,36.10
2017-07-17T11:33:51.464Z,35.60
2017-07-17T11:36:19.001Z,35.60
2017-07-17T11:38:46.540Z,35.60
2017-07-17T11:41:14.108Z,36.10
2017-07-17T11:43:46.166Z,37.20
2017-07-17T11:56:26.081Z,40.00
2017-07-17T11:58:55.107Z,39.90
2017-07-17T12:03:55.324Z,37.70
2017-07-17T12:11:34.363Z,37.50
2017-07-17T12:14:01.917Z,37.10
2017-07-17T12:16:29.461Z,36.60
2017-07-17T12:18:57.021Z,36.10
2017-07-17T12:21:24.567Z,37.10
2017-07-17T12:23:52.119Z,38.20
2017-07-17T12:26:19.655Z,38.70
2017-07-17T12:28:47.190Z,38.10
2017-07-17T12:31:14.751Z,38.80
2017-07-17T12:33:42.321Z,37.70
2017-07-17T12:36:09.879Z,38.50
2017-07-17T12:38:37.400Z,38.90
2017-07-17T12:41:04.933Z,37.80
2017-07-17T12:43:32.460Z,37.70
2017-07-17T12:46:00.010Z,37.80
2017-07-17T12:48:27.549Z,37.10
2017-07-17T12:50:55.095Z,36.50
2017-07-17T12:53:22.627Z,35.80
2017-07-17T12:55:50.153Z,35.30
2017-07-17T12:58:18.480Z,34.60
2017-07-17T13:00:46.033Z,34.60
2017-07-17T13:03:13.599Z,35.00
2017-07-17T13:05:41.137Z,35.70
2017-07-17T13:08:08.715Z,36.00
2017-07-17T13:10:36.230Z,36.00
2017-07-17T13:13:03.756Z,36.50
2017-07-17T13:15:31.311Z,36.90
2017-07-17T13:17:58.850Z,37.00
2017-07-17T13:20:26.385Z,37.30
2017-07-17T13:22:53.926Z,37.70
2017-07-17T13:25:21.476Z,37.90
2017-07-17T13:27:49.001Z,37.90
2017-07-17T13:30:16.553Z,38.30
2017-07-17T13:32:44.096Z,38.60
2017-07-17T13:35:11.635Z,39.00
2017-07-17T13:37:39.194Z,39.40
2017-07-17T13:40:07.484Z,38.00
2017-07-17T13:42:35.060Z,38.00
2017-07-17T13:45:02.584Z,37.30
2017-07-17T13:47:30.902Z,36.00
2017-07-17T13:49:58.454Z,36.00
2017-07-17T13:52:26.027Z,36.00
2017-07-17T13:54:53.578Z,36.50
2017-07-17T13:57:21.107Z,36.70
2017-07-17T13:59:49.410Z,36.80
2017-07-17T14:02:16.998Z,36.70
2017-07-17T14:04:44.547Z,36.50
2017-07-17T14:07:12.100Z,36.50
2017-07-17T14:09:39.640Z,36.10
2017-07-17T14:12:07.169Z,35.80
2017-07-17T14:14:34.732Z,35.70
2017-07-17T14:17:03.033Z,35.50
2017-07-17T14:19:30.594Z,35.50
2017-07-17T14:21:58.126Z,35.50
2017-07-17T14:24:26.403Z,35.00
2017-07-17T14:26:54.741Z,34.70
2017-07-17T14:29:22.264Z,34.60
2017-07-17T14:31:49.826Z,34.40
2017-07-17T14:34:17.379Z,34.10
2017-07-17T14:36:44.999Z,33.90
2017-07-17T14:39:12.529Z,33.90
2017-07-17T14:41:40.077Z,33.90
2017-07-17T14:44:07.604Z,33.80
2017-07-17T14:46:35.170Z,33.70
2017-07-17T14:49:02.688Z,33.50
2017-07-17T14:51:30.202Z,33.40
2017-07-17T14:53:57.756Z,33.30
2017-07-17T14:56:25.277Z,33.10
2017-07-17T14:58:52.819Z,32.90
2017-07-17T15:01:20.367Z,33.00
2017-07-17T15:03:47.911Z,33.00
2017-07-17T15:06:15.434Z,32.90
2017-07-17T15:08:42.961Z,32.90
2017-07-17T15:11:10.472Z,32.90
2017-07-17T15:13:38.034Z,32.80
2017-07-17T15:16:05.574Z,32.70
2017-07-17T15:18:33.115Z,32.60
2017-07-17T15:21:00.659Z,32.60
2017-07-17T15:23:28.176Z,32.60
2017-07-17T15:25:55.708Z,32.60
2017-07-17T15:28:23.281Z,32.50
2017-07-17T15:30:50.827Z,32.40
2017-07-17T15:33:18.365Z,32.30
2017-07-17T15:35:45.908Z,32.30
2017-07-17T15:38:13.432Z,32.30
2017-07-17T15:40:40.948Z,32.30
2017-07-17T15:43:08.476Z,32.20
2017-07-17T15:45:36.007Z,32.10
2017-07-17T15:48:03.560Z,32.00
2017-07-17T15:50:31.086Z,31.90
2017-07-17T15:52:58.612Z,31.80
2017-07-17T15:55:26.150Z,31.70
2017-07-17T15:57:53.698Z,31.60
2017-07-17T16:00:21.246Z,31.60
2017-07-17T16:02:48.795Z,31.60
2017-07-17T16:05:16.327Z,31.50
2017-07-17T16:07:43.899Z,31.50
2017-07-17T16:10:12.220Z,31.40
2017-07-17T16:12:39.754Z,31.40
2017-07-17T16:15:07.307Z,31.40
2017-07-17T16:17:34.869Z,31.30
2017-07-17T16:20:02.511Z,31.20
2017-07-17T16:22:30.816Z,31.20
2017-07-17T16:24:58.365Z,31.10
2017-07-17T16:27:26.652Z,31.00
2017-07-17T16:29:54.191Z,31.00
2017-07-17T16:32:21.732Z,31.00
2017-07-17T16:34:49.291Z,30.90
2017-07-17T16:37:16.836Z,30.90
2017-07-17T16:39:44.442Z,30.80
2017-07-17T16:42:11.980Z,30.80
2017-07-17T16:44:39.510Z,30.70
2017-07-17T16:47:07.063Z,30.70
2017-07-17T16:49:34.597Z,30.60
2017-07-17T16:52:02.138Z,30.60
2017-07-17T16:54:29.667Z,30.50
2017-07-17T16:56:57.231Z,30.50
2017-07-17T16:59:24.762Z,30.40
2017-07-17T17:01:52.320Z,30.40
2017-07-17T17:04:19.847Z,30.40
2017-07-17T17:06:47.384Z,30.30
2017-07-17T17:09:14.909Z,30.30
2017-07-17T17:11:42.467Z,30.20
2017-07-17T17:14:10.025Z,30.20
2017-07-17T17:16:37.587Z,30.20
2017-07-17T17:19:05.132Z,30.10
2017-07-17T17:21:32.677Z,30.10
2017-07-17T17:24:00.235Z,30.10
2017-07-17T17:26:27.807Z,30.00
2017-07-17T17:28:55.724Z,30.00
2017-07-17T17:31:24.036Z,30.00
2017-07-17T17:33:51.594Z,29.90
2017-07-17T17:36:19.185Z,29.90
2017-07-17T17:38:46.774Z,29.90
2017-07-17T17:41:14.308Z,29.80
2017-07-17T17:43:41.828Z,29.80
2017-07-17T17:46:09.377Z,29.80
2017-07-17T17:48:36.988Z,29.80
2017-07-17T17:51:04.569Z,29.80
2017-07-17T17:53:32.156Z,29.70
2017-07-17T17:55:59.712Z,29.70
2017-07-17T17:58:27.275Z,29.60
2017-07-17T18:00:54.997Z,29.60
2017-07-17T18:03:22.540Z,29.60
2017-07-17T18:05:50.111Z,29.50
2017-07-17T18:08:17.645Z,29.50
2017-07-17T18:10:45.208Z,29.50
2017-07-17T18:13:12.808Z,29.50
2017-07-17T18:15:40.407Z,29.50
2017-07-17T18:18:08.072Z,29.40
2017-07-17T18:20:35.762Z,29.40
2017-07-17T18:23:03.497Z,29.40
2017-07-17T18:25:31.097Z,29.30
2017-07-17T18:27:58.657Z,29.30
2017-07-17T18:30:26.223Z,29.20
2017-07-17T18:32:53.799Z,29.20
2017-07-17T18:35:21.353Z,29.20
2017-07-17T18:37:48.888Z,29.10
2017-07-17T18:40:16.421Z,29.10
2017-07-17T18:42:43.961Z,29.10
2017-07-17T18:45:11.490Z,29.10
2017-07-17T18:47:39.016Z,29.10
2017-07-17T18:50:06.562Z,29.10
2017-07-17T18:52:34.081Z,29.00
2017-07-17T18:55:01.609Z,29.00
2017-07-17T18:57:29.139Z,29.00
2017-07-17T18:59:56.690Z,29.00
2017-07-17T19:02:24.210Z,29.00
2017-07-17T19:04:51.771Z,29.00
2017-07-17T19:07:19.293Z,29.00
2017-07-17T19:09:46.845Z,28.90
2017-07-17T19:12:14.379Z,28.90
2017-07-17T19:14:41.913Z,28.90
2017-07-17T19:17:09.451Z,28.80
2017-07-17T19:19:36.968Z,28.80
2017-07-17T19:22:04.529Z,28.80
2017-07-17T19:24:32.107Z,28.80
2017-07-17T19:26:59.671Z,28.80
2017-07-17T19:29:27.208Z,28.80
2017-07-17T19:31:54.815Z,28.70
2017-07-17T19:34:22.349Z,28.70
2017-07-17T19:36:49.908Z,28.70
2017-07-17T19:39:17.464Z,28.70
2017-07-17T19:41:45.005Z,28.60
2017-07-17T19:44:12.571Z,28.70
2017-07-17T19:46:40.115Z,28.60
2017-07-17T19:49:07.672Z,28.60
2017-07-17T19:51:35.232Z,28.60
2017-07-17T19:54:02.799Z,28.60
2017-07-17T19:56:30.329Z,28.50
2017-07-17T19:58:58.965Z,28.50
2017-07-17T20:01:26.483Z,28.40
2017-07-17T20:03:54.077Z,28.40
2017-07-17T20:06:21.653Z,28.40
2017-07-17T20:08:49.230Z,28.40
2017-07-17T20:11:16.748Z,28.40
2017-07-17T20:13:44.288Z,28.40
2017-07-17T20:16:11.848Z,28.30
2017-07-17T20:18:39.420Z,28.30
2017-07-17T20:21:06.968Z,28.30
2017-07-17T20:23:34.506Z,28.20
2017-07-17T20:26:02.052Z,28.20
2017-07-17T20:28:29.578Z,28.20
2017-07-17T20:30:57.165Z,28.20
2017-07-17T20:33:24.732Z,28.10
2017-07-17T20:35:52.267Z,28.10
2017-07-17T20:38:19.895Z,28.10
2017-07-17T20:40:47.427Z,28.10
2017-07-17T20:43:15.775Z,28.00
2017-07-17T20:45:43.296Z,28.00
2017-07-17T20:48:10.845Z,28.00
2017-07-17T20:50:38.679Z,28.00
2017-07-17T20:53:07.016Z,27.90
2017-07-17T20:55:34.537Z,27.90
2017-07-17T20:58:02.101Z,27.90
2017-07-17T21:00:29.685Z,27.90
2017-07-17T21:02:57.217Z,27.90
2017-07-17T21:05:24.772Z,27.90
2017-07-17T21:07:52.307Z,27.90
2017-07-17T21:10:19.850Z,27.90
2017-07-17T21:12:47.365Z,27.90
2017-07-17T21:15:14.935Z,27.90
2017-07-17T21:17:42.460Z,27.90
2017-07-17T21:20:10.045Z,27.80
2017-07-17T21:22:37.578Z,27.80
2017-07-17T21:25:05.136Z,27.80
2017-07-17T21:27:32.683Z,27.80
2017-07-17T21:30:00.292Z,27.80
2017-07-17T21:32:28.084Z,27.80
2017-07-17T21:34:56.395Z,27.70
2017-07-17T21:37:24.719Z,27.70
2017-07-17T21:39:52.256Z,27.70
2017-07-17T21:42:19.805Z,27.70
2017-07-17T21:44:47.317Z,27.70
2017-07-17T21:47:14.872Z,27.60
2017-07-17T21:49:42.387Z,27.70
2017-07-17T21:52:09.933Z,27.60
2017-07-17T21:54:37.500Z,27.60
2017-07-17T21:57:05.035Z,27.60
2017-07-17T21:59:32.580Z,27.50
2017-07-17T22:02:00.107Z,27.50
2017-07-17T22:04:27.655Z,27.50
2017-07-17T22:06:55.185Z,27.50
2017-07-17T22:09:22.722Z,27.50
2017-07-17T22:11:50.268Z,27.50
2017-07-17T22:14:17.813Z,27.50
2017-07-17T22:16:45.352Z,27.40
2017-07-17T22:19:12.922Z,27.40
2017-07-17T22:21:40.472Z,27.40
2017-07-17T22:24:08.034Z,27.40
2017-07-17T22:26:35.616Z,27.40
2017-07-17T22:29:03.140Z,27.40
2017-07-17T22:31:30.676Z,27.40
2017-07-17T22:33:58.199Z,27.40
2017-07-17T22:36:25.755Z,27.30
2017-07-17T22:38:53.282Z,27.30
2017-07-17T22:41:20.844Z,27.30
2017-07-17T22:43:48.383Z,27.30
2017-07-17T22:46:16.852Z,27.20
2017-07-17T22:48:45.145Z,27.20
2017-07-17T22:51:12.694Z,27.20
2017-07-17T22:53:40.205Z,27.20
2017-07-17T22:56:07.758Z,27.20
2017-07-17T22:58:35.278Z,27.20
2017-07-17T23:01:02.812Z,27.20
2017-07-17T23:03:30.357Z,27.20
2017-07-17T23:05:57.862Z,27.10
2017-07-17T23:08:25.410Z,27.10
2017-07-17T23:10:52.941Z,27.10
2017-07-17T23:13:20.494Z,27.10
2017-07-17T23:15:48.057Z,27.10
2017-07-17T23:18:15.607Z,27.10
2017-07-17T23:20:43.137Z,27.00
2017-07-17T23:23:10.693Z,27.00
2017-07-17T23:25:38.212Z,27.00
2017-07-17T23:28:05.732Z,27.00
2017-07-17T23:30:33.271Z,27.00
2017-07-17T23:33:00.788Z,27.00
2017-07-17T23:35:28.342Z,27.00
2017-07-17T23:37:55.853Z,27.00
2017-07-17T23:40:23.405Z,27.00
2017-07-17T23:42:50.925Z,26.90
2017-07-17T23:45:18.509Z,26.90
2017-07-17T23:47:46.021Z,26.90
2017-07-17T23:50:13.616Z,26.90
2017-07-17T23:52:41.937Z,26.70
2017-07-17T23:55:09.457Z,26.70
2017-07-17T23:57:37.015Z,26.70
